Terminal Aerodrome Forecast
Issued by NWS

Home | Current Version | Previous Version | Text Only | Print | Product List | Glossary On
Versions: 1 2 3 4 5 6 7 8 9 10 11 12 13 14 15 16 17
715
FTUS42 KFFC 222328
TAFRYY
TAF
KRYY 222328Z 2300/2324 VRB03KT P6SM VCSH SCT006 SCT020 BKN100
     FM230200 VRB03KT 6SM -SHRA VCTS SCT008 BKN020CB OVC100
     FM230600 VRB03KT 5SM -SHRA VCTS BKN008CB
     FM231200 25005KT 4SM -SHRA OVC008
     FM231500 27007KT 5SM -SHRA OVC015
     FM232000 25005KT P6SM VCSH BKN030
      AMD NOT SKED 2304/2312=

USA.gov is the U.S. government's official web portal to all federal, state and local government web resources and services.